Time;durP1;ratioP1;P1;durP2;ratioP2;P2;SDS_P1;SDS_P2;PMS_P1;PMS_P2;Temp;Humidity;BMP_temperature;BMP_pressure;BME280_temperature;BME280_humidity;BME280_pressure;Samples;Min_cycle;Max_cycle;Signal;HPM_P1;HPM_P2
2023/03/31 00:01:33;;;;;;;16.25;3.45;;;10.50;99.90;;;;;;5013999;28;20041;-36
2023/03/31 00:04:03;;;;;;;16.75;3.60;;;10.60;99.90;;;;;;5014705;28;20030;-35
2023/03/31 00:06:36;;;;;;;15.40;2.97;;;10.50;99.90;;;;;;5020274;28;20038;-36
2023/03/31 00:09:17;;;;;;;10.38;3.17;;;10.50;99.90;;;;;;5017181;28;20124;-36
2023/03/31 00:11:44;;;;;;;12.95;3.50;;;10.50;99.90;;;;;;5019017;28;20034;-36
2023/03/31 00:14:11;;;;;;;20.02;3.65;;;10.40;99.90;;;;;;5025787;28;20048;-36
2023/03/31 00:16:38;;;;;;;19.55;3.45;;;10.40;99.90;;;;;;5021270;28;20046;-36
2023/03/31 00:19:04;;;;;;;16.95;3.50;;;10.30;99.90;;;;;;5017780;28;20044;-36
2023/03/31 00:21:35;;;;;;;15.38;3.58;;;10.20;99.90;;;;;;5026244;28;20087;-36
2023/03/31 00:24:09;;;;;;;15.15;3.72;;;10.20;99.90;;;;;;5022857;28;20060;-36
2023/03/31 00:26:35;;;;;;;14.27;3.83;;;10.10;99.90;;;;;;5014959;28;20100;-36
2023/03/31 00:29:05;;;;;;;15.90;3.72;;;10.10;99.90;;;;;;5037350;28;20042;-35
2023/03/31 00:31:31;;;;;;;13.65;3.75;;;10.00;99.90;;;;;;5022384;28;20077;-35
2023/03/31 00:33:57;;;;;;;14.00;3.60;;;10.00;99.90;;;;;;5019104;28;20585;-35
2023/03/31 00:36:26;;;;;;;14.73;3.42;;;9.90;99.90;;;;;;5013910;28;20121;-36
2023/03/31 00:39:07;;;;;;;19.23;3.75;;;9.90;99.90;;;;;;5019069;28;20507;-35
2023/03/31 00:41:35;;;;;;;17.65;4.07;;;9.90;99.90;;;;;;5022137;28;20041;-36
2023/03/31 00:44:17;;;;;;;13.82;3.85;;;9.90;99.90;;;;;;5010443;28;20030;-36
2023/03/31 00:47:15;;;;;;;14.95;3.83;;;9.90;99.90;;;;;;5016477;28;20045;-35
2023/03/31 00:49:47;;;;;;;11.45;3.17;;;9.90;99.90;;;;;;5020788;28;20498;-35
2023/03/31 00:52:23;;;;;;;15.68;3.50;;;9.90;99.90;;;;;;5018428;28;20092;-35
2023/03/31 00:54:57;;;;;;;14.35;3.45;;;9.90;99.90;;;;;;5019664;28;20072;-35
2023/03/31 00:57:27;;;;;;;16.45;3.42;;;9.90;99.90;;;;;;5016179;28;20037;-36
2023/03/31 00:59:57;;;;;;;9.85;3.03;;;9.80;99.90;;;;;;5022805;28;20048;-36
2023/03/31 01:02:24;;;;;;;11.93;2.95;;;9.80;99.90;;;;;;5019397;28;20038;-36
2023/03/31 01:05:00;;;;;;;13.00;3.30;;;9.80;99.90;;;;;;5020814;28;20076;-35
2023/03/31 01:07:43;;;;;;;14.57;4.20;;;9.70;99.90;;;;;;5021472;28;20045;-35
2023/03/31 01:10:10;;;;;;;13.88;2.92;;;9.70;99.90;;;;;;5013496;28;20041;-36
2023/03/31 01:12:46;;;;;;;10.60;3.45;;;9.60;99.90;;;;;;5032573;28;20035;-35
2023/03/31 01:15:12;;;;;;;11.25;3.63;;;9.50;99.90;;;;;;5015367;28;20034;-35
2023/03/31 01:17:39;;;;;;;14.10;3.70;;;9.50;99.90;;;;;;5018550;28;20128;-35
2023/03/31 01:20:20;;;;;;;11.27;3.90;;;9.50;99.90;;;;;;5017485;28;20503;-36
2023/03/31 01:22:48;;;;;;;9.75;3.97;;;9.50;99.90;;;;;;5022346;28;20326;-36
2023/03/31 01:25:33;;;;;;;14.57;4.32;;;9.50;99.90;;;;;;5012476;28;20483;-36
2023/03/31 01:28:08;;;;;;;11.60;4.45;;;9.50;99.90;;;;;;5017320;28;20060;-36
2023/03/31 01:31:14;;;;;;;11.95;4.32;;;9.40;99.90;;;;;;5018511;28;20507;-35
2023/03/31 01:34:17;;;;;;;15.13;4.25;;;9.50;99.90;;;;;;5017636;28;20038;-36
2023/03/31 01:37:02;;;;;;;11.88;4.97;;;9.50;99.90;;;;;;5018949;28;20395;-35
2023/03/31 01:40:01;;;;;;;16.42;5.47;;;9.50;99.90;;;;;;5015857;28;20042;-35
2023/03/31 01:42:43;;;;;;;12.43;4.97;;;9.50;99.90;;;;;;5014286;28;20447;-35
2023/03/31 01:45:54;;;;;;;9.50;4.68;;;9.50;99.90;;;;;;5020572;28;20033;-36
2023/03/31 01:48:34;;;;;;;14.48;4.90;;;9.60;99.90;;;;;;4998952;28;20056;-35
2023/03/31 01:51:34;;;;;;;14.85;5.10;;;9.50;99.90;;;;;;5015060;28;20444;-35
2023/03/31 01:54:31;;;;;;;12.50;5.28;;;9.60;99.90;;;;;;5014374;28;20129;-36
2023/03/31 01:57:08;;;;;;;13.35;5.63;;;9.60;99.90;;;;;;5013000;28;20557;-36
2023/03/31 01:59:40;;;;;;;15.02;5.00;;;9.60;99.90;;;;;;5014647;28;20446;-36
2023/03/31 02:02:24;;;;;;;14.88;4.50;;;9.60;99.90;;;;;;5013402;28;20049;-36
2023/03/31 02:04:55;;;;;;;11.50;4.45;;;9.60;99.90;;;;;;5010709;28;20561;-36
2023/03/31 02:07:27;;;;;;;12.80;4.43;;;9.60;99.90;;;;;;5019714;28;20120;-35
2023/03/31 02:10:00;;;;;;;11.20;4.53;;;9.70;99.90;;;;;;5015646;28;20038;-35
2023/03/31 02:12:29;;;;;;;13.25;4.60;;;9.60;99.90;;;;;;5010541;28;20562;-36
2023/03/31 02:14:57;;;;;;;10.07;4.65;;;9.60;99.90;;;;;;5021485;28;20128;-35
2023/03/31 02:17:32;;;;;;;12.60;4.65;;;9.70;99.90;;;;;;5021421;28;20042;-36
2023/03/31 02:20:07;;;;;;;10.18;4.00;;;9.70;99.90;;;;;;5015514;28;20049;-36
2023/03/31 02:22:37;;;;;;;10.88;4.05;;;9.70;99.90;;;;;;5016099;28;20030;-35
2023/03/31 02:25:07;;;;;;;11.57;4.18;;;9.70;99.90;;;;;;5026200;28;20096;-36
2023/03/31 02:27:36;;;;;;;13.73;4.03;;;9.70;99.90;;;;;;5022437;28;20054;-36
2023/03/31 02:30:02;;;;;;;12.15;4.70;;;9.70;99.90;;;;;;5007807;28;20034;-36
2023/03/31 02:32:36;;;;;;;11.27;4.30;;;9.70;99.90;;;;;;5019575;28;20092;-35
2023/03/31 02:35:03;;;;;;;12.30;4.82;;;9.80;99.90;;;;;;5013739;28;20041;-35
2023/03/31 02:37:29;;;;;;;14.55;4.50;;;9.80;99.90;;;;;;5030643;28;20454;-35
2023/03/31 02:40:00;;;;;;;14.95;5.25;;;9.80;99.90;;;;;;5023761;28;20038;-35
2023/03/31 02:42:26;;;;;;;10.77;4.05;;;9.80;99.90;;;;;;5027895;28;20041;-36
2023/03/31 02:44:52;;;;;;;11.25;4.25;;;9.90;99.90;;;;;;5014174;28;20038;-40
2023/03/31 02:47:20;;;;;;;10.30;3.95;;;9.80;99.90;;;;;;5026941;28;20447;-36
2023/03/31 02:49:53;;;;;;;10.82;3.97;;;9.80;99.90;;;;;;5021314;28;20066;-37
2023/03/31 02:52:28;;;;;;;13.10;4.72;;;9.90;99.90;;;;;;5009853;28;20044;-37
2023/03/31 02:55:05;;;;;;;12.32;4.25;;;9.90;99.90;;;;;;5008648;28;20564;-37
2023/03/31 02:57:49;;;;;;;13.88;4.00;;;9.90;99.90;;;;;;5027136;28;20542;-37
2023/03/31 03:00:34;;;;;;;12.20;4.30;;;10.00;99.90;;;;;;5025234;28;20120;-37
2023/03/31 03:03:18;;;;;;;7.75;3.67;;;10.00;99.90;;;;;;5011903;28;20041;-37
2023/03/31 03:06:01;;;;;;;7.18;3.17;;;10.00;99.90;;;;;;5031573;28;20045;-36
2023/03/31 03:09:05;;;;;;;8.98;4.40;;;10.00;99.90;;;;;;5015428;28;20395;-38
2023/03/31 03:11:37;;;;;;;10.27;3.90;;;10.10;99.90;;;;;;4974010;28;20063;-37
2023/03/31 03:14:26;;;;;;;9.80;4.28;;;10.00;99.90;;;;;;4976076;28;20050;-37
2023/03/31 03:16:58;;;;;;;10.20;4.35;;;10.10;99.90;;;;;;4987554;28;20463;-37
2023/03/31 03:19:25;;;;;;;8.23;3.67;;;10.10;99.90;;;;;;5013836;28;20049;-37
2023/03/31 03:21:51;;;;;;;11.68;4.13;;;10.10;99.90;;;;;;5033487;28;20044;-37
2023/03/31 03:24:17;;;;;;;10.70;3.90;;;10.10;99.90;;;;;;5015403;28;20041;-37
2023/03/31 03:26:44;;;;;;;9.35;3.90;;;10.10;99.90;;;;;;5020291;28;20046;-37
2023/03/31 03:29:13;;;;;;;10.65;3.60;;;10.10;99.90;;;;;;5019202;28;20069;-37
2023/03/31 03:31:40;;;;;;;6.97;3.65;;;10.20;99.90;;;;;;5019775;28;20069;-37
2023/03/31 03:34:06;;;;;;;10.25;3.75;;;10.10;99.90;;;;;;5024273;28;20045;-37
2023/03/31 03:36:32;;;;;;;8.18;4.13;;;10.10;99.90;;;;;;5021134;28;20115;-37
2023/03/31 03:38:58;;;;;;;13.70;4.55;;;10.10;99.90;;;;;;5019534;28;20462;-38
2023/03/31 03:41:24;;;;;;;11.40;4.38;;;10.10;99.90;;;;;;5013320;28;20038;-39
2023/03/31 03:43:49;;;;;;;12.52;4.72;;;10.00;99.90;;;;;;5024495;28;20399;-40
2023/03/31 03:46:16;;;;;;;11.30;4.70;;;10.00;99.90;;;;;;5023993;28;20084;-38
2023/03/31 03:48:42;;;;;;;7.75;4.13;;;10.00;99.90;;;;;;5003662;28;20034;-39
2023/03/31 03:51:10;;;;;;;13.82;4.57;;;10.00;99.90;;;;;;5023468;28;20044;-37
2023/03/31 03:53:36;;;;;;;9.73;4.40;;;9.90;99.90;;;;;;5020599;28;20037;-37
2023/03/31 03:56:02;;;;;;;8.45;4.22;;;9.90;99.90;;;;;;5021117;28;20414;-40
2023/03/31 03:58:27;;;;;;;13.40;4.40;;;9.90;99.90;;;;;;5015835;28;20048;-37
2023/03/31 04:00:53;;;;;;;7.00;4.22;;;9.90;99.90;;;;;;5013501;28;20049;-37
2023/03/31 04:03:19;;;;;;;10.85;4.88;;;9.90;99.90;;;;;;5018201;28;20034;-38
2023/03/31 04:05:48;;;;;;;6.85;4.68;;;9.90;99.90;;;;;;5017564;28;20495;-38
2023/03/31 04:08:14;;;;;;;9.10;4.55;;;9.80;99.90;;;;;;5025743;28;20083;-38
2023/03/31 04:10:48;;;;;;;14.13;4.50;;;9.80;99.90;;;;;;5017104;28;20041;-37
2023/03/31 04:13:23;;;;;;;6.80;3.90;;;9.80;99.90;;;;;;5021983;28;20045;-38
2023/03/31 04:15:48;;;;;;;11.40;4.32;;;9.80;99.90;;;;;;5021537;28;20041;-40
2023/03/31 04:18:21;;;;;;;9.98;4.93;;;9.80;99.90;;;;;;5021617;28;20630;-37
2023/03/31 04:21:03;;;;;;;9.20;4.78;;;9.80;99.90;;;;;;5024158;28;20116;-43
2023/03/31 04:23:34;;;;;;;8.77;4.57;;;9.80;99.90;;;;;;5010741;28;20089;-39
2023/03/31 04:26:01;;;;;;;8.38;4.72;;;9.80;99.90;;;;;;5014564;28;20042;-37
2023/03/31 04:28:33;;;;;;;10.40;4.55;;;9.80;99.90;;;;;;5015161;28;20116;-38
2023/03/31 04:31:00;;;;;;;8.32;3.80;;;9.70;99.90;;;;;;5016299;28;20536;-42
2023/03/31 04:33:27;;;;;;;9.35;4.75;;;9.80;99.90;;;;;;5016098;28;20048;-37
2023/03/31 04:35:52;;;;;;;9.02;5.22;;;9.80;99.90;;;;;;5009704;28;20077;-38
2023/03/31 04:38:25;;;;;;;7.30;4.63;;;9.80;99.90;;;;;;5019441;28;20053;-37
2023/03/31 04:40:52;;;;;;;10.23;4.78;;;9.70;99.90;;;;;;5006114;28;20378;-38
2023/03/31 04:43:19;;;;;;;7.88;4.13;;;9.80;99.90;;;;;;5021913;28;20061;-38
2023/03/31 04:45:48;;;;;;;7.47;4.28;;;9.80;99.90;;;;;;5011024;28;20391;-38
2023/03/31 04:48:14;;;;;;;8.63;4.30;;;9.80;99.90;;;;;;5023697;28;20563;-37
2023/03/31 04:50:40;;;;;;;10.88;5.10;;;9.80;99.90;;;;;;5019237;28;20117;-37
2023/03/31 04:53:05;;;;;;;9.80;4.85;;;9.90;99.90;;;;;;5016879;28;20112;-39
2023/03/31 04:55:31;;;;;;;10.30;4.68;;;9.90;99.90;;;;;;5019507;28;20588;-40
2023/03/31 04:58:00;;;;;;;10.40;4.93;;;9.90;99.90;;;;;;5020610;28;20037;-37
2023/03/31 05:00:27;;;;;;;11.45;5.45;;;9.90;99.90;;;;;;5014755;28;20037;-37
2023/03/31 05:02:53;;;;;;;11.70;4.78;;;9.90;99.90;;;;;;5022624;28;20391;-37
2023/03/31 05:05:19;;;;;;;10.00;5.97;;;9.90;99.90;;;;;;5015405;28;20033;-38
2023/03/31 05:07:45;;;;;;;9.50;4.85;;;9.90;99.90;;;;;;4995340;28;20077;-38
2023/03/31 05:10:11;;;;;;;10.13;4.97;;;10.00;99.90;;;;;;5015656;28;20077;-38
2023/03/31 05:12:37;;;;;;;7.57;4.82;;;10.00;99.90;;;;;;5013783;28;20045;-37
2023/03/31 05:15:07;;;;;;;9.38;5.00;;;9.90;99.90;;;;;;5014504;28;20030;-38
2023/03/31 05:17:34;;;;;;;11.00;5.07;;;9.90;99.90;;;;;;5011652;28;20060;-37
2023/03/31 05:20:00;;;;;;;11.40;5.22;;;9.90;99.90;;;;;;5010621;28;20576;-37
2023/03/31 05:22:27;;;;;;;11.45;5.18;;;10.00;99.90;;;;;;5011104;28;20053;-37
2023/03/31 05:24:53;;;;;;;9.23;4.78;;;10.00;99.90;;;;;;5012017;28;20132;-38
2023/03/31 05:27:29;;;;;;;12.00;5.75;;;9.90;99.90;;;;;;5013897;28;20435;-37
2023/03/31 05:29:55;;;;;;;10.35;5.38;;;9.90;99.90;;;;;;5027065;28;20080;-36
2023/03/31 05:32:21;;;;;;;7.93;4.40;;;9.90;99.90;;;;;;5018116;28;20080;-36
2023/03/31 05:34:48;;;;;;;11.35;5.20;;;9.90;99.90;;;;;;5011809;28;20030;-36
2023/03/31 05:37:14;;;;;;;6.30;4.18;;;9.90;99.90;;;;;;5016352;28;20056;-36
2023/03/31 05:39:40;;;;;;;8.18;4.28;;;9.90;99.90;;;;;;5015137;28;20107;-36
2023/03/31 05:42:06;;;;;;;8.70;4.35;;;9.90;99.90;;;;;;5014522;28;20073;-36
2023/03/31 05:44:32;;;;;;;9.23;4.60;;;9.90;99.90;;;;;;5011308;28;20066;-36
2023/03/31 05:46:57;;;;;;;12.18;4.63;;;9.90;99.90;;;;;;5014166;28;20118;-36
2023/03/31 05:49:23;;;;;;;10.13;4.22;;;9.90;99.90;;;;;;5010648;28;20026;-37
2023/03/31 05:51:50;;;;;;;13.60;4.90;;;9.90;99.90;;;;;;5015982;28;20384;-37
2023/03/31 05:54:16;;;;;;;9.07;4.35;;;9.90;99.90;;;;;;5017745;28;20037;-37
2023/03/31 05:56:42;;;;;;;11.32;4.90;;;9.90;99.90;;;;;;5000163;28;20046;-37
2023/03/31 05:59:07;;;;;;;10.68;5.07;;;9.90;99.90;;;;;;5018932;28;20048;-37
2023/03/31 06:01:33;;;;;;;9.60;5.30;;;9.90;99.90;;;;;;5012095;28;20181;-36
2023/03/31 06:03:59;;;;;;;9.68;5.05;;;9.90;99.90;;;;;;5022872;28;20042;-37
2023/03/31 06:06:25;;;;;;;9.88;5.82;;;9.90;99.90;;;;;;5015147;28;20104;-37
2023/03/31 06:08:50;;;;;;;12.48;5.82;;;9.90;99.90;;;;;;5020609;28;20038;-37
2023/03/31 06:11:19;;;;;;;13.25;7.85;;;10.00;99.90;;;;;;5012527;28;20098;-37
2023/03/31 06:13:45;;;;;;;11.93;6.18;;;9.90;99.90;;;;;;5026703;28;20096;-37
2023/03/31 06:16:12;;;;;;;12.50;5.57;;;9.90;99.90;;;;;;5014510;28;20033;-37
2023/03/31 06:18:39;;;;;;;11.27;5.18;;;10.00;99.90;;;;;;5020844;28;20045;-37
2023/03/31 06:21:05;;;;;;;9.75;5.40;;;9.90;99.90;;;;;;5014500;28;20041;-37
2023/03/31 06:23:32;;;;;;;12.25;5.40;;;10.00;99.90;;;;;;5017909;28;20402;-37
2023/03/31 06:26:07;;;;;;;9.93;4.93;;;10.00;99.90;;;;;;5014779;28;20069;-37
2023/03/31 06:28:34;;;;;;;12.93;5.90;;;10.00;99.90;;;;;;5017636;28;20095;-37
2023/03/31 06:31:02;;;;;;;11.60;5.80;;;10.00;99.90;;;;;;5016358;28;20061;-37
2023/03/31 06:33:27;;;;;;;15.20;5.35;;;10.00;99.90;;;;;;5008083;28;20038;-37
2023/03/31 06:35:58;;;;;;;10.63;5.78;;;10.00;99.90;;;;;;5011938;28;20042;-37
2023/03/31 06:38:24;;;;;;;11.43;6.35;;;10.00;99.90;;;;;;5011614;28;20073;-37
2023/03/31 06:40:50;;;;;;;9.60;4.85;;;9.90;99.90;;;;;;5030637;28;20030;-37
2023/03/31 06:43:16;;;;;;;8.65;5.28;;;10.00;99.90;;;;;;5018431;28;20041;-37
2023/03/31 06:45:41;;;;;;;12.18;6.05;;;9.90;99.90;;;;;;5003091;28;20034;-37
2023/03/31 06:48:07;;;;;;;7.55;5.13;;;9.90;99.90;;;;;;5012180;28;20034;-37
2023/03/31 06:50:35;;;;;;;12.65;6.20;;;10.00;99.90;;;;;;4996092;28;20030;-37
2023/03/31 06:53:01;;;;;;;12.00;7.43;;;10.00;99.90;;;;;;5009678;28;20037;-37
2023/03/31 06:55:27;;;;;;;10.25;6.18;;;10.00;99.90;;;;;;5010536;28;20399;-37
2023/03/31 06:57:52;;;;;;;9.55;5.07;;;10.00;99.90;;;;;;5010871;28;20506;-37
2023/03/31 07:00:18;;;;;;;11.77;4.47;;;10.00;99.90;;;;;;5009922;28;20443;-37
2023/03/31 07:02:44;;;;;;;10.98;5.38;;;10.10;99.90;;;;;;5015092;28;20052;-37
2023/03/31 07:05:10;;;;;;;7.35;4.57;;;10.10;99.90;;;;;;5021848;28;20041;-37
2023/03/31 07:07:35;;;;;;;10.65;4.50;;;10.10;99.90;;;;;;5018685;28;21128;-37
2023/03/31 07:10:01;;;;;;;9.65;4.38;;;10.10;99.90;;;;;;5023038;28;20076;-37
2023/03/31 07:12:27;;;;;;;7.35;4.40;;;10.20;99.90;;;;;;5018935;28;20069;-37
2023/03/31 07:14:52;;;;;;;9.13;4.78;;;10.20;99.90;;;;;;5038339;28;20041;-37
2023/03/31 07:17:18;;;;;;;10.02;4.68;;;10.30;99.90;;;;;;5024003;28;20545;-37
2023/03/31 07:19:46;;;;;;;7.22;4.05;;;10.40;99.90;;;;;;5025941;28;20495;-37
2023/03/31 07:22:13;;;;;;;10.27;4.90;;;10.50;99.90;;;;;;5021985;28;20125;-37
2023/03/31 07:24:39;;;;;;;10.57;4.90;;;10.50;99.90;;;;;;5015442;28;20038;-37
2023/03/31 07:27:05;;;;;;;11.10;5.78;;;10.60;99.90;;;;;;5014310;28;20076;-37
2023/03/31 07:29:31;;;;;;;7.63;3.90;;;10.60;99.90;;;;;;5020764;28;20402;-37
2023/03/31 07:31:56;;;;;;;10.15;4.13;;;10.60;99.90;;;;;;5025158;28;20391;-37
2023/03/31 07:34:22;;;;;;;9.90;4.10;;;10.60;99.90;;;;;;5008435;28;20448;-37
2023/03/31 07:36:48;;;;;;;7.88;3.53;;;10.60;99.90;;;;;;5029278;28;20041;-37
2023/03/31 07:39:14;;;;;;;11.25;4.22;;;10.60;99.90;;;;;;5027245;28;20056;-37
2023/03/31 07:41:41;;;;;;;7.50;3.97;;;10.60;99.90;;;;;;5006521;28;20132;-37
2023/03/31 07:44:06;;;;;;;10.73;4.47;;;10.60;99.90;;;;;;5018201;28;20042;-37
2023/03/31 07:46:32;;;;;;;6.97;4.25;;;10.60;99.90;;;;;;5015454;28;20040;-37
2023/03/31 07:48:58;;;;;;;10.05;4.60;;;10.60;99.90;;;;;;5010538;28;20037;-37
2023/03/31 07:51:25;;;;;;;9.43;4.13;;;10.70;99.90;;;;;;5038374;28;20063;-37
2023/03/31 07:53:52;;;;;;;9.57;4.78;;;10.70;99.90;;;;;;5005450;28;20047;-37
2023/03/31 07:56:23;;;;;;;12.85;4.47;;;10.70;99.90;;;;;;5021373;28;20115;-37
2023/03/31 07:58:51;;;;;;;8.35;4.18;;;10.70;99.90;;;;;;5022690;28;20509;-37
2023/03/31 08:01:18;;;;;;;6.47;3.60;;;10.60;99.90;;;;;;5020963;28;20041;-37
2023/03/31 08:03:47;;;;;;;8.25;3.67;;;10.70;99.90;;;;;;5021477;28;20069;-37
2023/03/31 08:06:18;;;;;;;8.98;4.18;;;10.60;99.90;;;;;;5021059;28;20100;-37
2023/03/31 08:08:44;;;;;;;9.07;4.20;;;10.70;99.90;;;;;;5019367;28;20044;-37
2023/03/31 08:11:10;;;;;;;7.40;3.70;;;10.70;99.90;;;;;;5020881;28;20457;-37
2023/03/31 08:13:36;;;;;;;8.82;4.15;;;10.70;99.90;;;;;;5022585;28;20129;-37
2023/03/31 08:16:02;;;;;;;8.07;3.63;;;10.70;99.90;;;;;;5016378;28;20112;-37
2023/03/31 08:18:28;;;;;;;9.85;4.13;;;10.70;99.90;;;;;;5029925;28;20096;-37
2023/03/31 08:20:54;;;;;;;9.13;3.75;;;10.70;99.90;;;;;;5015302;28;20033;-37
2023/03/31 08:23:20;;;;;;;8.02;3.13;;;10.70;99.90;;;;;;5013254;28;20446;-37
2023/03/31 08:25:46;;;;;;;7.18;3.25;;;10.80;99.90;;;;;;5024846;28;20046;-37
2023/03/31 08:28:12;;;;;;;9.13;3.47;;;10.80;99.90;;;;;;5022495;28;20041;-37
2023/03/31 08:30:41;;;;;;;8.13;3.78;;;10.80;99.90;;;;;;5021183;28;20037;-37
2023/03/31 08:33:07;;;;;;;9.07;3.60;;;10.80;99.90;;;;;;5024713;28;20030;-37
2023/03/31 08:35:36;;;;;;;7.60;3.80;;;10.80;99.90;;;;;;5020581;28;20183;-37
2023/03/31 08:38:03;;;;;;;7.57;3.78;;;10.80;99.90;;;;;;5015516;28;20124;-37
2023/03/31 08:40:31;;;;;;;14.38;3.60;;;10.80;99.90;;;;;;5019282;28;20045;-37
2023/03/31 08:43:17;;;;;;;6.22;3.47;;;10.80;99.90;;;;;;5022492;28;20085;-37
2023/03/31 08:45:46;;;;;;;5.18;3.22;;;10.90;99.90;;;;;;5021331;28;20376;-37
2023/03/31 08:48:21;;;;;;;7.78;2.95;;;10.90;99.90;;;;;;5017501;28;20561;-37
2023/03/31 08:50:53;;;;;;;8.32;3.00;;;10.90;99.90;;;;;;5023375;28;20048;-37
2023/03/31 08:53:28;;;;;;;9.43;3.33;;;11.00;99.90;;;;;;5022871;28;20399;-37
2023/03/31 08:55:56;;;;;;;6.07;2.85;;;11.00;99.90;;;;;;5002299;28;20070;-37
2023/03/31 08:58:32;;;;;;;6.07;2.38;;;11.00;99.90;;;;;;5015372;28;20049;-37
2023/03/31 09:01:04;;;;;;;10.15;3.50;;;11.20;99.90;;;;;;5030089;28;20132;-37
2023/03/31 09:03:39;;;;;;;6.47;2.70;;;11.10;99.90;;;;;;5010802;28;20164;-36
2023/03/31 09:06:13;;;;;;;5.85;2.78;;;11.20;99.90;;;;;;5017335;28;20038;-37
2023/03/31 09:08:42;;;;;;;6.15;2.90;;;11.20;99.90;;;;;;5023802;28;20045;-37
2023/03/31 09:11:29;;;;;;;5.40;2.63;;;11.20;99.90;;;;;;5018366;28;20026;-37
2023/03/31 09:14:13;;;;;;;6.45;2.67;;;11.20;99.90;;;;;;5018034;28;20077;-37
2023/03/31 09:17:15;;;;;;;7.88;3.13;;;11.20;99.90;;;;;;5018002;28;20120;-37
2023/03/31 09:19:47;;;;;;;5.55;2.88;;;11.20;99.90;;;;;;5019939;28;20038;-37
2023/03/31 09:22:42;;;;;;;3.65;2.50;;;11.20;99.90;;;;;;5021128;28;20042;-37
2023/03/31 09:25:19;;;;;;;4.03;2.53;;;11.20;99.90;;;;;;5023361;28;20077;-37
2023/03/31 09:27:46;;;;;;;5.95;2.70;;;11.20;99.90;;;;;;5019141;28;20045;-36
2023/03/31 09:30:29;;;;;;;9.90;2.78;;;11.20;99.90;;;;;;5012073;28;20044;-36
2023/03/31 09:33:11;;;;;;;9.37;3.00;;;11.20;99.90;;;;;;5013056;28;20038;-37
2023/03/31 09:35:37;;;;;;;4.07;2.70;;;11.40;99.90;;;;;;5018992;28;20399;-37
2023/03/31 09:38:02;;;;;;;7.35;2.95;;;11.40;99.90;;;;;;5018702;28;20038;-37
2023/03/31 09:40:29;;;;;;;8.70;2.63;;;11.40;99.90;;;;;;5013343;28;20052;-37
2023/03/31 09:43:05;;;;;;;6.40;2.65;;;11.50;99.90;;;;;;5027090;28;20205;-37
2023/03/31 09:45:32;;;;;;;4.68;2.42;;;11.50;99.90;;;;;;5021535;28;20479;-37
2023/03/31 09:48:06;;;;;;;6.25;3.03;;;11.60;99.90;;;;;;5015131;28;20078;-37
2023/03/31 09:50:38;;;;;;;7.63;2.58;;;11.60;99.90;;;;;;5020159;28;20096;-37
2023/03/31 09:53:10;;;;;;;8.57;3.58;;;11.70;99.90;;;;;;5017852;28;20482;-37
2023/03/31 09:55:46;;;;;;;7.20;2.55;;;11.70;99.90;;;;;;5020972;28;20472;-37
2023/03/31 09:58:15;;;;;;;5.72;2.67;;;11.70;99.90;;;;;;5033326;28;20116;-37
2023/03/31 10:00:42;;;;;;;4.97;1.90;;;11.70;99.90;;;;;;5019773;28;20490;-37
2023/03/31 10:03:12;;;;;;;8.07;2.25;;;11.70;99.90;;;;;;5009768;28;20061;-37
2023/03/31 10:05:51;;;;;;;5.63;2.00;;;11.60;99.90;;;;;;5011477;28;20030;-37
2023/03/31 10:08:16;;;;;;;4.78;2.17;;;11.60;99.90;;;;;;5017334;28;20045;-37
2023/03/31 10:10:52;;;;;;;4.93;3.97;;;11.60;99.90;;;;;;5019591;28;20034;-37
2023/03/31 10:13:22;;;;;;;4.97;2.00;;;11.60;99.90;;;;;;5020227;28;20041;-37
2023/03/31 10:16:00;;;;;;;4.47;1.95;;;11.70;99.90;;;;;;5013888;28;20096;-37
2023/03/31 10:18:33;;;;;;;3.67;1.73;;;11.70;99.90;;;;;;5008481;28;20088;-37
2023/03/31 10:21:00;;;;;;;;;;;11.80;99.90;;;;;;5019367;28;20046;-35
2023/03/31 10:23:29;;;;;;;4.20;1.80;;;12.00;99.90;;;;;;5019306;28;19917;-34
2023/03/31 10:25:56;;;;;;;4.40;1.58;;;12.10;99.90;;;;;;4994463;28;20399;-37
2023/03/31 10:28:22;;;;;;;4.35;1.70;;;12.20;99.90;;;;;;5013617;28;20041;-37
2023/03/31 10:30:53;;;;;;;4.13;1.70;;;12.30;99.90;;;;;;5020920;28;20037;-38
2023/03/31 10:33:25;;;;;;;3.58;1.50;;;12.40;99.90;;;;;;5021417;28;20034;-37
2023/03/31 10:35:57;;;;;;;3.30;1.70;;;12.50;99.90;;;;;;5017944;28;20387;-38
2023/03/31 10:38:36;;;;;;;5.07;1.73;;;12.40;99.90;;;;;;5011211;28;20040;-37
2023/03/31 10:41:02;;;;;;;3.70;1.60;;;12.30;99.90;;;;;;5020124;28;20037;-38
2023/03/31 10:43:48;;;;;;;4.15;1.98;;;12.20;99.90;;;;;;5017028;28;20034;-39
2023/03/31 10:46:14;;;;;;;4.10;1.88;;;12.10;99.90;;;;;;5015664;28;20034;-38
2023/03/31 10:48:43;;;;;;;4.35;1.75;;;12.00;99.90;;;;;;5022563;28;20040;-38
2023/03/31 10:51:15;;;;;;;3.80;2.28;;;12.00;99.90;;;;;;5023220;28;20037;-37
2023/03/31 10:53:51;;;;;;;4.38;1.98;;;12.00;99.90;;;;;;5013589;28;20506;-38
2023/03/31 10:56:40;;;;;;;4.45;1.90;;;11.90;99.90;;;;;;5015265;28;20034;-36
2023/03/31 10:59:18;;;;;;;4.13;2.38;;;11.90;99.90;;;;;;5017471;28;20045;-35
2023/03/31 11:02:12;;;;;;;5.72;2.70;;;11.90;99.90;;;;;;5023552;28;20092;-35
2023/03/31 11:04:43;;;;;;;;;;;12.00;99.90;;;;;;5015514;28;20084;-34
2023/03/31 11:07:30;;;;;;;3.70;2.60;;;12.10;99.90;;;;;;5020090;28;20015;-36
2023/03/31 11:10:34;;;;;;;3.90;2.42;;;12.20;99.90;;;;;;5020385;28;20113;-37
2023/03/31 11:13:04;;;;;;;2.58;2.30;;;12.30;99.90;;;;;;4976010;28;20049;-36
2023/03/31 11:15:50;;;;;;;5.75;2.78;;;12.40;99.90;;;;;;5016544;28;20125;-36
2023/03/31 11:18:32;;;;;;;5.55;2.30;;;12.40;99.90;;;;;;4997139;28;20478;-35
2023/03/31 11:21:19;;;;;;;3.58;2.30;;;12.40;99.90;;;;;;5004810;28;20520;-35
2023/03/31 11:24:02;;;;;;;4.25;2.20;;;12.50;99.90;;;;;;5018402;28;20128;-36
2023/03/31 11:27:08;;;;;;;4.43;2.58;;;12.50;99.90;;;;;;5020304;28;20484;-36
2023/03/31 11:30:00;;;;;;;4.38;2.60;;;12.40;99.90;;;;;;4983714;28;20557;-36
2023/03/31 11:33:00;;;;;;;3.35;2.30;;;12.40;99.90;;;;;;5022302;28;20064;-36
2023/03/31 11:35:46;;;;;;;6.40;2.60;;;12.40;99.90;;;;;;5015812;28;20121;-36
2023/03/31 11:38:52;;;;;;;7.50;2.78;;;12.30;99.90;;;;;;5023101;28;20044;-36
2023/03/31 11:41:44;;;;;;;6.00;3.00;;;12.30;99.90;;;;;;5014386;28;20068;-36
2023/03/31 11:44:16;;;;;;;6.85;3.20;;;12.40;99.90;;;;;;5013971;28;20038;-36
2023/03/31 11:47:02;;;;;;;7.43;3.20;;;12.40;99.90;;;;;;5015050;28;20042;-36
2023/03/31 11:49:31;;;;;;;10.02;3.50;;;12.40;99.90;;;;;;5012715;28;20129;-36
2023/03/31 11:52:04;;;;;;;6.75;3.47;;;12.30;99.90;;;;;;5010664;28;20041;-36
2023/03/31 11:54:41;;;;;;;8.20;3.42;;;12.30;99.90;;;;;;5013003;28;20042;-36
2023/03/31 11:57:26;;;;;;;7.53;3.20;;;12.40;99.90;;;;;;5021089;28;20107;-36
2023/03/31 12:00:05;;;;;;;5.80;3.85;;;12.40;99.90;;;;;;5012322;28;20041;-36
2023/03/31 12:02:49;;;;;;;7.32;4.60;;;12.50;99.90;;;;;;5022282;28;20046;-36
2023/03/31 12:05:17;;;;;;;6.22;3.85;;;12.40;99.90;;;;;;5027146;28;20052;-36
2023/03/31 12:08:01;;;;;;;6.78;3.97;;;12.40;99.90;;;;;;5022773;28;20030;-36
2023/03/31 12:10:30;;;;;;;;;;;12.50;99.90;;;;;;5017092;28;20265;-36
2023/03/31 12:13:23;;;;;;;10.45;4.03;;;12.30;99.90;;;;;;5015042;28;19918;-36
2023/03/31 12:16:17;;;;;;;12.20;4.60;;;12.30;99.90;;;;;;5011460;28;20471;-36
2023/03/31 12:18:56;;;;;;;10.38;5.05;;;12.20;99.90;;;;;;5009862;28;20060;-36
2023/03/31 12:21:24;;;;;;;9.13;4.35;;;12.20;99.90;;;;;;5014975;28;20057;-37
2023/03/31 12:23:49;;;;;;;9.93;5.05;;;12.20;99.90;;;;;;5020082;28;20045;-36
2023/03/31 12:26:37;;;;;;;12.10;5.55;;;12.40;99.90;;;;;;5018898;28;20578;-36
2023/03/31 12:29:20;;;;;;;9.48;4.72;;;12.70;99.90;;;;;;5011788;28;20037;-36
2023/03/31 12:31:47;;;;;;;9.00;3.83;;;13.20;99.90;;;;;;5011573;28;20049;-36
2023/03/31 12:34:17;;;;;;;7.93;4.70;;;13.50;99.90;;;;;;5020216;28;20176;-36
2023/03/31 12:36:50;;;;;;;9.80;4.20;;;13.50;99.90;;;;;;5020061;28;20511;-36
2023/03/31 12:39:37;;;;;;;7.70;4.13;;;13.60;99.90;;;;;;5019663;28;20045;-37
2023/03/31 12:42:24;;;;;;;9.05;4.18;;;13.50;99.90;;;;;;5002427;28;20095;-36
2023/03/31 12:45:10;;;;;;;10.43;4.65;;;13.70;99.90;;;;;;5016140;28;20129;-36
2023/03/31 12:47:54;;;;;;;9.43;4.47;;;13.60;99.90;;;;;;5009075;28;20456;-36
2023/03/31 12:50:47;;;;;;;11.18;4.40;;;13.50;99.90;;;;;;5020377;28;20112;-36
2023/03/31 12:53:38;;;;;;;11.88;3.78;;;13.50;99.90;;;;;;5014041;28;20084;-36
2023/03/31 12:56:05;;;;;;;10.85;3.60;;;13.50;99.90;;;;;;5005030;28;20503;-36
2023/03/31 12:58:32;;;;;;;9.45;3.13;;;13.50;99.90;;;;;;5016721;28;20030;-36
2023/03/31 13:01:15;;;;;;;10.45;3.67;;;13.50;99.90;;;;;;5027356;28;20045;-36
2023/03/31 13:04:09;;;;;;;10.32;3.35;;;13.50;99.90;;;;;;5012469;28;20037;-36
2023/03/31 13:06:37;;;;;;;11.85;4.07;;;13.50;99.90;;;;;;5012148;28;20042;-36
2023/03/31 13:09:32;;;;;;;9.43;3.15;;;13.50;99.90;;;;;;5020786;28;20116;-36
2023/03/31 13:12:05;;;;;;;8.82;3.15;;;13.50;99.90;;;;;;5005421;28;20042;-36
2023/03/31 13:14:43;;;;;;;9.63;2.73;;;13.50;99.90;;;;;;5020847;28;20096;-36